createdAt,value
2023-04-27T00:00:11.848Z,98556.25
2023-04-27T00:01:14.821Z,98551.19
2023-04-27T00:02:17.846Z,98557.16
2023-04-27T00:03:19.876Z,98555.41
2023-04-27T00:04:23.154Z,98556.25
2023-04-27T00:05:25.643Z,98552.84
2023-04-27T00:06:28.548Z,98558.91
2023-04-27T00:11:28.526Z,98552.00
2023-04-27T00:12:30.616Z,98554.75
2023-04-27T00:13:33.477Z,98550.59
2023-04-27T00:14:35.293Z,98548.09
2023-04-27T00:15:38.158Z,98551.50
2023-04-27T00:16:40.048Z,98550.69
2023-04-27T00:17:43.695Z,98550.69
2023-04-27T00:18:46.025Z,98549.91
2023-04-27T00:19:48.847Z,98546.59
2023-04-27T00:20:50.738Z,98546.69
2023-04-27T00:21:53.641Z,98549.28
2023-04-27T00:22:55.483Z,98547.59
2023-04-27T00:23:58.277Z,98548.50
2023-04-27T00:25:00.108Z,98552.91
2023-04-27T00:26:03.020Z,98544.50
2023-04-27T00:27:06.822Z,98549.84
2023-04-27T00:28:09.794Z,98553.38
2023-04-27T00:29:11.821Z,98546.72
2023-04-27T00:30:15.761Z,98558.88
2023-04-27T00:31:17.601Z,98554.69
2023-04-27T00:32:20.624Z,98547.88
2023-04-27T00:33:24.260Z,98554.88
2023-04-27T00:34:27.092Z,98547.28
2023-04-27T00:35:29.067Z,98551.69
2023-04-27T00:36:31.894Z,98549.28
2023-04-27T00:37:33.734Z,98551.19
2023-04-27T00:38:39.109Z,98555.66
2023-04-27T00:39:41.098Z,98553.41
2023-04-27T00:40:43.963Z,98556.94
2023-04-27T00:41:45.860Z,98551.97
2023-04-27T00:42:50.049Z,98556.53
2023-04-27T00:43:51.908Z,98556.75
2023-04-27T00:44:54.856Z,98557.72
2023-04-27T00:45:57.054Z,98557.81
2023-04-27T00:47:00.611Z,98554.47
2023-04-27T00:48:02.494Z,98561.34
2023-04-27T00:49:05.734Z,98554.53
2023-04-27T00:50:10.273Z,98550.47
2023-04-27T00:51:13.318Z,98561.66
2023-04-27T00:52:15.216Z,98561.84
2023-04-27T00:53:19.114Z,98556.81
2023-04-27T00:54:21.160Z,98557.06
2023-04-27T00:55:24.098Z,98564.94
2023-04-27T00:56:26.116Z,98559.94
2023-04-27T00:57:28.936Z,98565.22
2023-04-27T00:58:32.836Z,98560.28
2023-04-27T00:59:35.879Z,98562.19
2023-04-27T01:00:37.818Z,98560.69
2023-04-27T01:01:40.822Z,98558.25
2023-04-27T01:02:42.885Z,98564.47
2023-04-27T01:03:45.998Z,98563.84
2023-04-27T01:04:48.500Z,98565.81
2023-04-27T01:05:51.305Z,98565.19
2023-04-27T01:06:53.597Z,98561.09
2023-04-27T01:07:56.440Z,98565.63
2023-04-27T01:08:58.301Z,98565.84
2023-04-27T01:10:04.756Z,98565.09
2023-04-27T01:11:06.633Z,98568.72
2023-04-27T01:12:09.461Z,98568.00
2023-04-27T01:13:11.299Z,98568.16
2023-04-27T01:14:15.429Z,98570.03
2023-04-27T01:15:17.276Z,98567.59
2023-04-27T01:16:20.225Z,98571.22
2023-04-27T01:17:22.129Z,98563.66
2023-04-27T01:18:24.904Z,98556.16
2023-04-27T01:19:26.786Z,98562.34
2023-04-27T01:20:30.380Z,98565.94
2023-04-27T01:21:32.248Z,98555.91
2023-04-27T01:22:35.916Z,98562.00
2023-04-27T01:23:42.024Z,98558.72
2023-04-27T01:24:47.048Z,98567.41
2023-04-27T01:25:48.901Z,98570.09
2023-04-27T01:26:53.218Z,98571.00
2023-04-27T01:27:54.993Z,98569.44
2023-04-27T01:28:57.822Z,98570.38
2023-04-27T01:29:59.632Z,98573.84
2023-04-27T01:31:02.401Z,98573.03
2023-04-27T01:32:04.816Z,98569.66
2023-04-27T01:33:07.674Z,98569.84
2023-04-27T01:34:09.682Z,98567.31
2023-04-27T01:35:12.607Z,98573.50
2023-04-27T01:36:14.406Z,98574.41
2023-04-27T01:37:17.151Z,98574.53
2023-04-27T01:38:19.089Z,98577.22
2023-04-27T01:39:23.231Z,98581.53
2023-04-27T01:40:25.032Z,98573.06
2023-04-27T01:41:29.445Z,98578.28
2023-04-27T01:42:31.205Z,98580.06
2023-04-27T01:43:34.019Z,98578.31
2023-04-27T01:44:36.664Z,98576.59
2023-04-27T01:45:39.434Z,98573.19
2023-04-27T01:46:41.433Z,98587.69
2023-04-27T01:47:44.484Z,98584.25
2023-04-27T01:48:46.641Z,98580.06
2023-04-27T01:49:49.421Z,98582.69
2023-04-27T01:50:54.284Z,98581.88
2023-04-27T01:51:57.065Z,98584.47
2023-04-27T01:52:58.840Z,98581.22
2023-04-27T01:54:01.701Z,98577.84
2023-04-27T01:55:06.315Z,98588.16
2023-04-27T01:56:10.164Z,98572.94
2023-04-27T01:57:12.356Z,98573.03
2023-04-27T01:58:15.217Z,98574.88
2023-04-27T01:59:17.333Z,98575.84
2023-04-27T02:00:20.740Z,98585.34
2023-04-27T02:01:22.786Z,98576.94
2023-04-27T02:02:25.869Z,98587.28
2023-04-27T02:03:28.052Z,98584.00
2023-04-27T02:04:31.110Z,98582.38
2023-04-27T02:05:33.397Z,98586.75
2023-04-27T02:06:36.450Z,98580.03
2023-04-27T02:07:38.247Z,98583.66
2023-04-27T02:08:41.037Z,98592.41
2023-04-27T02:09:43.767Z,98588.22
2023-04-27T02:10:50.900Z,98583.16
2023-04-27T02:11:52.731Z,98583.22
2023-04-27T02:12:55.586Z,98582.38
2023-04-27T02:13:57.408Z,98586.75
2023-04-27T02:15:08.729Z,98585.97
2023-04-27T02:16:10.838Z,98594.53
2023-04-27T02:17:16.127Z,98582.63
2023-04-27T02:18:18.355Z,98583.47
2023-04-27T02:19:21.788Z,98586.84
2023-04-27T02:20:23.602Z,98588.59
2023-04-27T02:21:26.494Z,98584.28
2023-04-27T02:22:28.405Z,98585.97
2023-04-27T02:23:31.364Z,98586.75
2023-04-27T02:24:34.128Z,98583.34
2023-04-27T02:25:36.957Z,98582.44
2023-04-27T02:26:41.131Z,98586.75
2023-04-27T02:27:43.625Z,98594.44
2023-04-27T02:28:47.505Z,98594.44
2023-04-27T02:29:50.003Z,98582.53
2023-04-27T02:30:53.301Z,98583.34
2023-04-27T02:31:55.319Z,98589.31
2023-04-27T02:32:59.208Z,98588.47
2023-04-27T02:34:01.043Z,98584.19
2023-04-27T02:35:04.607Z,98584.19
2023-04-27T02:36:07.351Z,98579.88
2023-04-27T02:37:10.107Z,98582.53
2023-04-27T02:38:13.445Z,98579.13
2023-04-27T02:39:16.498Z,98588.59
2023-04-27T02:40:18.417Z,98576.81
2023-04-27T02:41:21.531Z,98580.25
2023-04-27T02:42:26.509Z,98585.38
2023-04-27T02:43:29.273Z,98580.25
2023-04-27T02:44:31.100Z,98576.94
2023-04-27T02:45:38.013Z,98579.56
2023-04-27T02:46:40.842Z,98587.28
2023-04-27T02:47:43.704Z,98588.19
2023-04-27T02:48:45.548Z,98583.13
2023-04-27T02:49:48.299Z,98583.97
2023-04-27T02:50:50.138Z,98583.13
2023-04-27T02:51:52.920Z,98582.25
2023-04-27T02:52:55.339Z,98579.69
2023-04-27T02:53:58.623Z,98589.00
2023-04-27T02:55:00.464Z,98579.56
2023-04-27T02:56:03.374Z,98590.66
2023-04-27T02:57:05.519Z,98586.34
2023-04-27T02:58:09.741Z,98592.31
2023-04-27T02:59:11.810Z,98582.13
2023-04-27T03:00:15.882Z,98582.31
2023-04-27T03:01:18.055Z,98580.66
2023-04-27T03:02:21.160Z,98575.56
2023-04-27T03:03:23.556Z,98582.41
2023-04-27T03:04:28.194Z,98577.28
2023-04-27T03:05:31.773Z,98579.94
2023-04-27T03:06:34.762Z,98591.09
2023-04-27T03:07:36.595Z,98579.94
2023-04-27T03:08:39.896Z,98585.06
2023-04-27T03:09:41.935Z,98584.16
2023-04-27T03:10:44.828Z,98583.25
2023-04-27T03:11:46.805Z,98584.94
2023-04-27T03:12:49.753Z,98596.06
2023-04-27T03:13:53.082Z,98594.28
2023-04-27T03:14:56.380Z,98584.88
2023-04-27T03:16:00.248Z,98595.13
2023-04-27T03:17:03.250Z,98590.91
2023-04-27T03:18:06.307Z,98603.66
2023-04-27T03:19:10.203Z,98591.72
2023-04-27T03:20:12.805Z,98599.34
2023-04-27T03:21:16.845Z,98603.53
2023-04-27T03:22:18.886Z,98598.41
2023-04-27T03:23:21.744Z,98597.50
2023-04-27T03:24:25.591Z,98598.28
2023-04-27T03:25:28.627Z,98599.09
2023-04-27T03:26:30.484Z,98601.66
2023-04-27T03:27:33.777Z,98601.66
2023-04-27T03:28:36.302Z,98600.91
2023-04-27T03:29:40.557Z,98598.34
2023-04-27T03:30:42.506Z,98598.41
2023-04-27T03:31:45.540Z,98601.84
2023-04-27T03:32:47.805Z,98601.00
2023-04-27T03:33:50.808Z,98603.53
2023-04-27T03:34:53.397Z,98602.69
2023-04-27T03:35:56.809Z,98602.75
2023-04-27T03:36:59.742Z,98608.78
2023-04-27T03:38:01.786Z,98607.13
2023-04-27T03:39:05.463Z,98608.88
2023-04-27T03:40:08.748Z,98611.41
2023-04-27T03:41:11.765Z,98613.16
2023-04-27T03:42:13.710Z,98615.63
2023-04-27T03:43:16.647Z,98617.38
2023-04-27T03:44:18.659Z,98615.56
2023-04-27T03:45:24.618Z,98629.19
2023-04-27T03:46:27.313Z,98618.91
2023-04-27T03:47:31.050Z,98629.19
2023-04-27T03:48:33.098Z,98624.88
2023-04-27T03:49:37.089Z,98621.53
2023-04-27T03:50:39.139Z,98631.84
2023-04-27T03:51:42.478Z,98637.91
2023-04-27T03:52:44.402Z,98639.66
2023-04-27T03:53:47.378Z,98632.75
2023-04-27T03:54:49.325Z,98635.31
2023-04-27T03:55:54.371Z,98629.28
2023-04-27T03:56:56.306Z,98636.97
2023-04-27T03:57:59.707Z,98636.97
2023-04-27T03:59:01.493Z,98636.22
2023-04-27T04:00:11.621Z,98639.66
2023-04-27T04:01:18.738Z,98637.09
2023-04-27T04:02:23.475Z,98642.28
2023-04-27T04:03:25.749Z,98639.63
2023-04-27T04:04:28.972Z,98634.16
2023-04-27T04:05:31.634Z,98640.66
2023-04-27T04:06:34.406Z,98646.94
2023-04-27T04:07:36.403Z,98640.38
2023-04-27T04:08:39.289Z,98640.75
2023-04-27T04:09:41.224Z,98647.06
2023-04-27T04:10:44.155Z,98642.28
2023-04-27T04:11:46.040Z,98641.91
2023-04-27T04:12:51.314Z,98638.81
2023-04-27T04:13:53.283Z,98649.44
2023-04-27T04:14:56.192Z,98638.72
2023-04-27T04:16:02.639Z,98642.50
2023-04-27T04:17:07.104Z,98647.31
2023-04-27T04:18:08.990Z,98639.25
2023-04-27T04:19:11.998Z,98638.00
2023-04-27T04:20:14.128Z,98636.69
2023-04-27T04:21:16.928Z,98643.16
2023-04-27T04:22:18.814Z,98640.22
2023-04-27T04:23:22.120Z,98636.53
2023-04-27T04:24:24.251Z,98639.72
2023-04-27T04:25:28.211Z,98641.94
2023-04-27T04:26:30.826Z,98637.09
2023-04-27T04:27:33.928Z,98643.47
2023-04-27T04:28:35.924Z,98645.75
2023-04-27T04:29:39.035Z,98652.34
2023-04-27T04:30:40.942Z,98653.84
2023-04-27T04:31:43.848Z,98649.53
2023-04-27T04:32:47.204Z,98651.81
2023-04-27T04:33:50.531Z,98649.47
2023-04-27T04:34:52.422Z,98648.84
2023-04-27T04:35:57.337Z,98649.09
2023-04-27T04:36:59.276Z,98650.19
2023-04-27T04:38:02.092Z,98648.81
2023-04-27T04:39:05.401Z,98646.53
2023-04-27T04:40:10.305Z,98651.03
2023-04-27T04:41:12.950Z,98651.38
2023-04-27T04:42:16.004Z,98644.09
2023-04-27T04:43:19.611Z,98652.22
2023-04-27T04:44:22.797Z,98644.91
2023-04-27T04:45:26.068Z,98653.91
2023-04-27T04:46:28.587Z,98654.41
2023-04-27T04:47:34.071Z,98658.25
2023-04-27T04:48:38.828Z,98652.41
2023-04-27T04:49:40.845Z,98656.13
2023-04-27T04:50:43.951Z,98660.84
2023-04-27T04:51:47.734Z,98657.09
2023-04-27T04:52:50.612Z,98661.75
2023-04-27T04:53:52.498Z,98660.31
2023-04-27T04:54:55.432Z,98668.56
2023-04-27T04:55:58.330Z,98651.97
2023-04-27T04:57:00.994Z,98662.03
2023-04-27T04:58:03.900Z,98663.69
2023-04-27T04:59:06.501Z,98662.78
2023-04-27T05:00:13.640Z,98660.28
2023-04-27T05:01:16.036Z,98669.50
2023-04-27T05:02:18.924Z,98659.75
2023-04-27T05:03:21.540Z,98665.56
2023-04-27T05:04:26.729Z,98666.22
2023-04-27T05:05:28.794Z,98664.28
2023-04-27T05:06:31.767Z,98664.94
2023-04-27T05:07:33.773Z,98662.38
2023-04-27T05:08:37.237Z,98662.94
2023-04-27T05:09:39.219Z,98671.97
2023-04-27T05:10:42.153Z,98672.28
2023-04-27T05:11:43.979Z,98662.41
2023-04-27T05:12:46.800Z,98667.69
2023-04-27T05:13:48.764Z,98659.00
2023-04-27T05:14:52.310Z,98667.59
2023-04-27T05:15:55.262Z,98665.88
2023-04-27T05:16:57.288Z,98661.63
2023-04-27T05:18:00.240Z,98660.03
2023-04-27T05:19:02.496Z,98657.50
2023-04-27T05:20:09.032Z,98661.78
2023-04-27T05:21:15.350Z,98665.34
2023-04-27T05:22:18.289Z,98664.16
2023-04-27T05:23:20.224Z,98662.00
2023-04-27T05:24:23.125Z,98665.66
2023-04-27T05:25:25.062Z,98662.75
2023-04-27T05:26:28.025Z,98665.31
2023-04-27T05:27:31.068Z,98669.47
2023-04-27T05:28:32.947Z,98668.34
2023-04-27T05:29:35.907Z,98663.56
2023-04-27T05:30:38.054Z,98669.75
2023-04-27T05:31:40.930Z,98662.13
2023-04-27T05:32:44.007Z,98664.53
2023-04-27T05:33:45.853Z,98668.91
2023-04-27T05:34:49.587Z,98666.63
2023-04-27T05:35:54.196Z,98670.94
2023-04-27T05:36:56.070Z,98671.81
2023-04-27T05:37:59.765Z,98671.81
2023-04-27T05:39:01.963Z,98671.84
2023-04-27T05:40:05.911Z,98670.00
2023-04-27T05:41:07.985Z,98670.63
2023-04-27T05:42:10.918Z,98679.63
2023-04-27T05:43:12.791Z,98676.66
2023-04-27T05:44:15.746Z,98677.72
2023-04-27T05:45:18.009Z,98680.22
2023-04-27T05:46:21.895Z,98678.09
2023-04-27T05:47:23.867Z,98674.41
2023-04-27T05:48:26.772Z,98674.38
2023-04-27T05:49:28.715Z,98682.31
2023-04-27T05:50:31.675Z,98682.50
2023-04-27T05:51:35.922Z,98679.63
2023-04-27T05:52:39.082Z,98679.72
2023-04-27T05:53:42.179Z,98683.59
2023-04-27T05:54:46.849Z,98694.13
2023-04-27T05:55:49.689Z,98694.78
2023-04-27T05:56:52.546Z,98690.19
2023-04-27T05:58:07.123Z,98685.28
2023-04-27T05:59:11.046Z,98683.84
2023-04-27T06:00:15.157Z,98693.53
2023-04-27T06:01:18.144Z,98692.09
2023-04-27T06:02:20.245Z,98686.09
2023-04-27T06:03:23.245Z,98689.16
2023-04-27T06:04:26.527Z,98686.28
2023-04-27T06:05:28.832Z,98684.69
2023-04-27T06:06:36.039Z,98686.91
2023-04-27T06:07:38.267Z,98695.31
2023-04-27T06:08:41.297Z,98688.97
2023-04-27T06:09:44.317Z,98693.69
2023-04-27T06:10:54.315Z,98686.63
2023-04-27T06:11:58.543Z,98693.56
2023-04-27T06:13:01.440Z,98689.16
2023-04-27T06:14:06.987Z,98691.00
2023-04-27T06:15:09.915Z,98690.47
2023-04-27T06:16:13.477Z,98693.84
2023-04-27T06:17:15.625Z,98700.94
2023-04-27T06:18:18.610Z,98697.91
2023-04-27T06:19:21.755Z,98701.00
2023-04-27T06:20:23.770Z,98700.31
2023-04-27T06:21:26.973Z,98696.38
2023-04-27T06:22:30.270Z,98696.31
2023-04-27T06:23:36.251Z,98698.41
2023-04-27T06:24:38.265Z,98705.72
2023-04-27T06:25:41.141Z,98706.16
2023-04-27T06:26:43.108Z,98700.88
2023-04-27T06:27:46.026Z,98699.22
2023-04-27T06:28:48.821Z,98700.13
2023-04-27T06:29:50.766Z,98709.75
2023-04-27T06:30:54.531Z,98704.66
2023-04-27T06:31:57.487Z,98704.06
2023-04-27T06:32:59.942Z,98704.47
2023-04-27T06:34:04.725Z,98710.78
2023-04-27T06:35:28.530Z,98703.56
2023-04-27T06:36:34.715Z,98707.41
2023-04-27T06:37:39.173Z,98708.84
2023-04-27T06:38:42.200Z,98712.41
2023-04-27T06:39:44.761Z,98719.03
2023-04-27T06:40:52.007Z,98710.00
2023-04-27T06:41:54.019Z,98711.38
2023-04-27T06:42:57.298Z,98711.72
2023-04-27T06:43:59.591Z,98713.09
2023-04-27T06:45:02.846Z,98705.34
2023-04-27T06:46:06.265Z,98708.50
2023-04-27T06:47:08.232Z,98716.84
2023-04-27T06:48:11.181Z,98709.09
2023-04-27T06:49:13.147Z,98712.34
2023-04-27T06:50:16.926Z,98696.06
2023-04-27T06:51:18.853Z,98707.56
2023-04-27T06:52:21.999Z,98703.72
2023-04-27T06:53:25.127Z,98705.22
2023-04-27T06:54:27.940Z,98697.16
2023-04-27T06:55:29.833Z,98706.22
2023-04-27T06:56:32.697Z,98699.97
2023-04-27T06:57:34.762Z,98699.00
2023-04-27T06:58:37.717Z,98696.31
2023-04-27T06:59:39.596Z,98696.19
2023-04-27T07:00:42.485Z,98702.28
2023-04-27T07:01:44.438Z,98696.94
2023-04-27T07:02:47.444Z,98707.19
2023-04-27T07:03:49.609Z,98700.59
2023-04-27T07:04:52.768Z,98708.78
2023-04-27T07:05:56.610Z,98702.34
2023-04-27T07:06:58.559Z,98701.66
2023-04-27T07:08:04.597Z,98695.06
2023-04-27T07:09:26.155Z,98703.31
2023-04-27T07:10:29.804Z,98699.44
2023-04-27T07:11:32.943Z,98704.13
2023-04-27T07:12:34.873Z,98708.09
2023-04-27T07:13:37.766Z,98701.91
2023-04-27T07:14:39.645Z,98700.97
2023-04-27T07:15:42.425Z,98700.16
2023-04-27T07:16:44.365Z,98704.59
2023-04-27T07:17:47.246Z,98703.13
2023-04-27T07:18:49.222Z,98708.56
2023-04-27T07:19:52.129Z,98699.09
2023-04-27T07:20:55.347Z,98704.41
2023-04-27T07:21:57.286Z,98699.13
2023-04-27T07:23:00.132Z,98695.50
2023-04-27T07:24:02.148Z,98709.25
2023-04-27T07:25:07.476Z,98703.53
2023-04-27T07:26:10.008Z,98700.06
2023-04-27T07:27:13.456Z,98703.53
2023-04-27T07:28:15.382Z,98698.22
2023-04-27T07:29:26.923Z,98703.25
2023-04-27T07:30:30.774Z,98702.91
2023-04-27T07:31:34.210Z,98713.00
2023-04-27T07:32:36.661Z,98711.13
2023-04-27T07:33:40.209Z,98707.44
2023-04-27T07:34:52.743Z,98701.25
2023-04-27T07:35:56.987Z,98697.91
2023-04-27T07:36:59.094Z,98704.69
2023-04-27T07:38:02.702Z,98701.66
2023-04-27T07:39:04.878Z,98701.56
2023-04-27T07:40:16.633Z,98699.78
2023-04-27T07:41:38.831Z,98700.69
2023-04-27T07:44:57.667Z,98705.94
2023-04-27T07:46:47.314Z,98707.34
2023-04-27T07:47:50.761Z,98713.19
2023-04-27T07:48:55.268Z,98709.63
2023-04-27T07:51:19.524Z,98711.72
2023-04-27T07:52:29.526Z,98707.44
2023-04-27T07:53:49.177Z,98706.31
2023-04-27T07:55:43.923Z,98706.00
2023-04-27T07:57:46.652Z,98705.16
2023-04-27T07:58:51.358Z,98699.81
2023-04-27T08:00:29.358Z,98699.66
2023-04-27T08:04:13.890Z,98701.38
2023-04-27T08:05:16.714Z,98707.88
2023-04-27T08:06:21.034Z,98709.47
2023-04-27T08:07:24.788Z,98698.66
2023-04-27T08:08:28.174Z,98706.44
2023-04-27T08:09:30.659Z,98704.31
2023-04-27T08:10:33.674Z,98698.03
2023-04-27T08:11:35.717Z,98700.28
2023-04-27T08:12:38.695Z,98703.94
2023-04-27T08:13:41.588Z,98710.00
2023-04-27T08:14:46.370Z,98701.19
2023-04-27T08:15:49.523Z,98712.00
2023-04-27T08:16:56.276Z,98698.00
2023-04-27T08:18:13.946Z,98711.41
2023-04-27T08:19:37.324Z,98708.03
2023-04-27T08:20:39.860Z,98712.09
2023-04-27T08:21:43.511Z,98712.53
2023-04-27T08:22:52.228Z,98713.94
2023-04-27T08:23:54.171Z,98712.41
2023-04-27T08:24:57.048Z,98715.28
2023-04-27T08:26:00.544Z,98715.41
2023-04-27T08:27:07.074Z,98710.72
2023-04-27T08:28:10.738Z,98715.13
2023-04-27T08:29:26.387Z,98714.28
2023-04-27T08:30:34.294Z,98713.13
2023-04-27T08:31:39.325Z,98710.06
2023-04-27T08:32:42.592Z,98710.31
2023-04-27T08:33:47.102Z,98713.00
2023-04-27T08:35:00.766Z,98716.16
2023-04-27T08:38:25.001Z,98714.31
2023-04-27T08:39:29.418Z,98713.56
2023-04-27T08:40:31.837Z,98721.28
2023-04-27T08:41:43.749Z,98715.56
2023-04-27T08:42:54.797Z,98715.63
2023-04-27T08:44:47.039Z,98708.63
2023-04-27T08:47:41.128Z,98712.00
2023-04-27T08:49:05.322Z,98715.72
2023-04-27T08:50:14.704Z,98716.81
2023-04-27T08:51:33.635Z,98707.31
2023-04-27T08:52:36.164Z,98716.81
2023-04-27T08:53:46.932Z,98719.44
2023-04-27T08:54:48.968Z,98719.03
2023-04-27T08:56:12.663Z,98718.97
2023-04-27T08:57:15.843Z,98724.91
2023-04-27T08:58:19.242Z,98720.34
2023-04-27T08:59:21.418Z,98725.59
2023-04-27T09:01:09.862Z,98715.63
2023-04-27T09:02:20.069Z,98721.38
2023-04-27T09:03:26.742Z,98725.63
2023-04-27T09:04:37.740Z,98729.84
2023-04-27T09:06:00.586Z,98722.13
2023-04-27T09:07:14.282Z,98724.94
2023-04-27T09:08:16.385Z,98723.94
2023-04-27T09:09:25.879Z,98732.41
2023-04-27T09:10:29.798Z,98729.38
2023-04-27T09:11:34.851Z,98730.91
2023-04-27T09:12:37.345Z,98723.38
2023-04-27T09:13:46.759Z,98730.81
2023-04-27T09:14:59.582Z,98725.06
2023-04-27T09:16:03.738Z,98726.47
2023-04-27T09:17:07.199Z,98717.66
2023-04-27T09:18:14.948Z,98719.06
2023-04-27T09:19:25.010Z,98714.13
2023-04-27T09:20:28.684Z,98722.94
2023-04-27T09:21:32.595Z,98722.16
2023-04-27T09:22:43.650Z,98717.50
2023-04-27T09:23:47.316Z,98719.56
2023-04-27T09:24:52.810Z,98707.34
2023-04-27T09:26:08.945Z,98713.44
2023-04-27T09:27:19.973Z,98717.22
2023-04-27T09:28:23.420Z,98708.97
2023-04-27T09:29:33.127Z,98708.81
2023-04-27T09:30:37.728Z,98710.94
2023-04-27T09:31:42.305Z,98705.78
2023-04-27T09:32:51.454Z,98710.66
2023-04-27T09:34:06.730Z,98698.72
2023-04-27T09:35:22.909Z,98710.75
2023-04-27T09:36:26.744Z,98700.22
2023-04-27T09:37:28.948Z,98701.16
2023-04-27T09:38:32.688Z,98694.06
2023-04-27T09:39:34.823Z,98690.75
2023-04-27T09:40:40.203Z,98695.34
2023-04-27T09:41:42.234Z,98696.88
2023-04-27T09:42:45.248Z,98689.81
2023-04-27T09:43:48.357Z,98690.97
2023-04-27T09:44:53.402Z,98692.34
2023-04-27T09:45:56.931Z,98705.06
2023-04-27T09:47:01.197Z,98703.59
2023-04-27T09:48:05.717Z,98706.59
2023-04-27T09:49:08.774Z,98706.72
2023-04-27T09:50:13.395Z,98703.53
2023-04-27T09:51:19.336Z,98703.75
2023-04-27T09:52:22.410Z,98699.56
2023-04-27T09:53:29.354Z,98707.09
2023-04-27T09:55:09.105Z,98705.63
2023-04-27T09:56:28.535Z,98709.28
2023-04-27T09:57:55.757Z,98710.84
2023-04-27T09:59:47.736Z,98707.97
2023-04-27T10:01:03.536Z,98704.69
2023-04-27T10:02:24.110Z,98698.47
2023-04-27T10:03:44.768Z,98709.34
2023-04-27T10:04:59.653Z,98706.44
2023-04-27T10:06:52.103Z,98705.91
2023-04-27T10:07:55.710Z,98711.25
2023-04-27T10:08:59.257Z,98710.69
2023-04-27T10:10:03.925Z,98717.31
2023-04-27T10:11:15.387Z,98709.72
2023-04-27T10:12:19.935Z,98708.31
2023-04-27T10:13:23.091Z,98706.16
2023-04-27T10:14:26.396Z,98696.28
2023-04-27T10:15:29.971Z,98699.47
2023-04-27T10:16:41.416Z,98710.16
2023-04-27T10:18:11.561Z,98701.00
2023-04-27T10:19:14.383Z,98704.31
2023-04-27T10:20:18.093Z,98696.16
2023-04-27T10:21:20.318Z,98703.31
2023-04-27T10:23:27.458Z,98705.41
2023-04-27T10:24:35.924Z,98697.88
2023-04-27T10:25:40.839Z,98701.31
2023-04-27T10:26:47.011Z,98709.47
2023-04-27T10:27:52.879Z,98708.09
2023-04-27T10:28:59.527Z,98710.09
2023-04-27T10:30:10.630Z,98701.19
2023-04-27T10:31:12.755Z,98705.78
2023-04-27T10:32:24.949Z,98709.91
2023-04-27T10:33:29.451Z,98709.00
2023-04-27T10:34:34.853Z,98710.16
2023-04-27T10:35:39.990Z,98703.25
2023-04-27T10:36:42.372Z,98714.13
2023-04-27T10:37:45.513Z,98711.25
2023-04-27T10:38:57.364Z,98716.44
2023-04-27T10:40:06.370Z,98707.66
2023-04-27T10:41:15.632Z,98709.66
2023-04-27T10:42:29.361Z,98705.19
2023-04-27T10:43:33.367Z,98714.56
2023-04-27T10:44:38.103Z,98710.81
2023-04-27T10:45:41.070Z,98710.75
2023-04-27T10:46:54.138Z,98715.47
2023-04-27T10:47:59.706Z,98711.13
2023-04-27T10:49:06.660Z,98708.72
2023-04-27T10:50:15.404Z,98712.28
2023-04-27T10:51:18.793Z,98718.34
2023-04-27T10:52:22.293Z,98712.56
2023-04-27T10:53:27.004Z,98714.72
2023-04-27T10:54:31.497Z,98702.34
2023-04-27T10:55:35.804Z,98697.81
2023-04-27T10:56:43.752Z,98699.50
2023-04-27T10:57:48.596Z,98691.28
2023-04-27T10:58:56.301Z,98698.84
2023-04-27T10:59:59.633Z,98706.88
2023-04-27T11:01:02.958Z,98708.72
2023-04-27T11:02:29.393Z,98703.66
2023-04-27T11:04:08.354Z,98708.25
2023-04-27T11:05:17.885Z,98701.16
2023-04-27T11:06:24.303Z,98703.59
2023-04-27T11:08:57.849Z,98701.28
2023-04-27T11:10:15.265Z,98700.28
2023-04-27T11:11:18.770Z,98707.19
2023-04-27T11:12:22.012Z,98700.94
2023-04-27T11:13:28.387Z,98699.28
2023-04-27T11:14:30.908Z,98695.09
2023-04-27T11:15:44.080Z,98700.81
2023-04-27T11:16:50.725Z,98701.97
2023-04-27T11:18:06.164Z,98702.72
2023-04-27T11:19:11.038Z,98699.75
2023-04-27T11:20:16.557Z,98701.16
2023-04-27T11:21:20.597Z,98706.91
2023-04-27T11:22:23.880Z,98703.78
2023-04-27T11:23:27.204Z,98706.84
2023-04-27T11:24:30.324Z,98710.38
2023-04-27T11:25:32.378Z,98704.91
2023-04-27T11:26:35.587Z,98709.41
2023-04-27T11:27:39.613Z,98706.53
2023-04-27T11:28:41.815Z,98710.50
2023-04-27T11:29:45.257Z,98703.78
2023-04-27T11:30:47.786Z,98708.72
2023-04-27T11:32:28.857Z,98712.63
2023-04-27T11:33:35.838Z,98709.44
2023-04-27T11:35:00.697Z,98703.00
2023-04-27T11:36:29.210Z,98707.22
2023-04-27T11:37:34.660Z,98707.81
2023-04-27T11:38:37.566Z,98705.31
2023-04-27T11:39:41.526Z,98712.81
2023-04-27T11:40:44.574Z,98711.91
2023-04-27T11:41:47.404Z,98710.69
2023-04-27T11:42:58.132Z,98711.38
2023-04-27T11:44:05.994Z,98713.59
2023-04-27T11:45:12.694Z,98715.31
2023-04-27T11:46:22.287Z,98714.66
2023-04-27T11:47:25.496Z,98712.00
2023-04-27T11:48:29.482Z,98722.25
2023-04-27T11:49:41.425Z,98724.34
2023-04-27T11:50:49.234Z,98730.84
2023-04-27T11:51:53.194Z,98719.13
2023-04-27T11:53:04.164Z,98723.94
2023-04-27T11:54:14.635Z,98723.94
2023-04-27T11:55:17.840Z,98722.31
2023-04-27T11:56:24.381Z,98729.75
2023-04-27T11:57:30.087Z,98722.88
2023-04-27T11:58:58.444Z,98721.78
2023-04-27T12:00:14.575Z,98726.06
2023-04-27T12:01:24.813Z,98720.56
2023-04-27T12:02:52.976Z,98715.16
2023-04-27T12:03:58.679Z,98724.00
2023-04-27T12:05:25.065Z,98715.59
2023-04-27T12:06:33.119Z,98718.31
2023-04-27T12:07:36.544Z,98714.84
2023-04-27T12:08:40.664Z,98720.91
2023-04-27T12:09:43.900Z,98716.47
2023-04-27T12:10:47.333Z,98711.34
2023-04-27T12:11:50.788Z,98715.09
2023-04-27T12:12:53.256Z,98709.56
2023-04-27T12:13:56.974Z,98711.69
2023-04-27T12:15:03.340Z,98710.81
2023-04-27T12:16:07.430Z,98711.56
2023-04-27T12:17:09.816Z,98715.31
2023-04-27T12:18:14.159Z,98713.00
2023-04-27T12:19:27.551Z,98715.22
2023-04-27T12:20:36.910Z,98721.69
2023-04-27T12:22:01.103Z,98712.44
2023-04-27T12:23:32.587Z,98716.47
2023-04-27T12:26:30.666Z,98715.84
2023-04-27T12:27:32.663Z,98710.03
2023-04-27T12:28:35.934Z,98717.66
2023-04-27T12:29:43.155Z,98720.41
2023-04-27T12:30:46.266Z,98720.25
2023-04-27T12:31:57.516Z,98715.19
2023-04-27T12:33:00.909Z,98726.19
2023-04-27T12:34:03.069Z,98724.88
2023-04-27T12:35:06.898Z,98728.31
2023-04-27T12:36:09.164Z,98720.19
2023-04-27T12:37:13.857Z,98727.88
2023-04-27T12:38:17.063Z,98727.00
2023-04-27T12:39:23.015Z,98729.09
2023-04-27T12:40:26.841Z,98732.09
2023-04-27T12:41:29.282Z,98724.94
2023-04-27T12:42:32.344Z,98722.09
2023-04-27T12:43:37.576Z,98726.19
2023-04-27T12:44:41.555Z,98720.56
2023-04-27T12:45:43.737Z,98720.72
2023-04-27T12:46:48.415Z,98722.53
2023-04-27T12:48:02.722Z,98730.09
2023-04-27T12:49:09.995Z,98721.91
2023-04-27T12:50:12.802Z,98725.66
2023-04-27T12:51:21.292Z,98722.06
2023-04-27T12:52:25.443Z,98724.84
2023-04-27T12:53:30.237Z,98721.56
2023-04-27T12:54:37.754Z,98724.94
2023-04-27T12:56:17.352Z,98710.09
2023-04-27T12:57:22.437Z,98715.00
2023-04-27T12:58:36.415Z,98714.53
2023-04-27T13:00:06.295Z,98716.28
2023-04-27T13:01:19.620Z,98718.84
2023-04-27T13:02:21.875Z,98716.91
2023-04-27T13:03:25.235Z,98715.41
2023-04-27T13:04:30.233Z,98712.47
2023-04-27T13:05:32.495Z,98715.13
2023-04-27T13:06:53.644Z,98714.25
2023-04-27T13:07:59.310Z,98724.94